NCAR-RAP Real-Time Weather Data

Output produced by METARs form (23 April 2019  08:11 UTC)
found at http://weather.rap.ucar.edu/surface/
 
RJBB 230800Z 22010KT 9999 FEW035 SCT170 BKN/// 20/16 Q1017 NOSIG